createdAt,value
2018-11-01T00:01:56.673Z,72.10
2018-11-01T00:05:02.012Z,71.70
2018-11-01T00:08:07.505Z,71.70
2018-11-01T00:11:12.859Z,72.50
2018-11-01T00:14:18.338Z,72.50
2018-11-01T00:17:23.811Z,72.00
2018-11-01T00:20:29.135Z,72.40
2018-11-01T00:23:34.605Z,72.50
2018-11-01T00:26:39.958Z,72.80
2018-11-01T00:29:45.370Z,73.00
2018-11-01T00:32:50.929Z,72.60
2018-11-01T00:35:56.255Z,72.70
2018-11-01T00:39:01.606Z,74.20
2018-11-01T00:42:07.462Z,73.50
2018-11-01T00:45:13.345Z,73.80
2018-11-01T00:48:18.681Z,73.70
2018-11-01T00:51:24.010Z,74.10
2018-11-01T00:54:29.442Z,74.40
2018-11-01T00:57:34.819Z,74.30
2018-11-01T01:00:40.885Z,74.20
2018-11-01T01:03:46.699Z,73.90
2018-11-01T01:06:52.033Z,73.80
2018-11-01T01:09:57.374Z,73.90
2018-11-01T01:13:03.317Z,74.00
2018-11-01T01:16:08.698Z,74.40
2018-11-01T01:19:14.064Z,75.00
2018-11-01T01:22:19.520Z,74.50
2018-11-01T01:25:24.852Z,74.50
2018-11-01T01:28:30.565Z,74.80
2018-11-01T01:31:36.008Z,74.90
2018-11-01T01:34:41.437Z,75.00
2018-11-01T01:37:47.115Z,75.20
2018-11-01T01:40:52.448Z,75.30
2018-11-01T01:43:57.900Z,75.10
2018-11-01T01:47:03.261Z,75.40
2018-11-01T01:50:12.806Z,74.90
2018-11-01T01:53:18.450Z,75.60
2018-11-01T01:56:23.786Z,75.20
2018-11-01T01:59:29.190Z,76.30
2018-11-01T02:02:34.598Z,75.10
2018-11-01T02:05:39.922Z,75.00
2018-11-01T02:08:45.270Z,74.70
2018-11-01T02:11:50.824Z,74.70
2018-11-01T02:14:56.261Z,74.90
2018-11-01T02:18:01.637Z,74.90
2018-11-01T02:21:07.746Z,75.00
2018-11-01T02:24:13.302Z,74.70
2018-11-01T02:27:18.694Z,74.90
2018-11-01T02:30:24.426Z,75.40
2018-11-01T02:33:29.989Z,75.20
2018-11-01T02:36:35.319Z,74.90
2018-11-01T02:39:40.666Z,75.20
2018-11-01T02:42:46.145Z,74.90
2018-11-01T02:45:51.474Z,75.00
2018-11-01T02:48:56.857Z,76.00
2018-11-01T02:52:02.250Z,75.00
2018-11-01T02:55:07.946Z,75.20
2018-11-01T02:58:13.333Z,75.10
2018-11-01T03:01:19.430Z,74.80
2018-11-01T03:04:24.889Z,75.00
2018-11-01T03:07:30.253Z,75.00
2018-11-01T03:10:35.578Z,75.20
2018-11-01T03:13:41.028Z,75.30
2018-11-01T03:16:46.360Z,75.30
2018-11-01T03:19:51.709Z,75.20
2018-11-01T03:22:57.157Z,75.60
2018-11-01T03:26:03.142Z,75.50
2018-11-01T03:29:08.488Z,75.30
2018-11-01T03:32:13.919Z,75.80
2018-11-01T03:35:19.335Z,75.50
2018-11-01T03:38:24.969Z,76.90
2018-11-01T03:41:30.473Z,75.30
2018-11-01T03:44:35.837Z,75.60
2018-11-01T03:47:41.694Z,76.10
2018-11-01T03:50:47.034Z,76.80
2018-11-01T03:53:52.497Z,77.10
2018-11-01T03:56:58.025Z,76.90
2018-11-01T04:00:03.362Z,77.00
2018-11-01T04:03:08.802Z,76.70
2018-11-01T04:06:14.121Z,76.90
2018-11-01T04:09:19.471Z,76.80
2018-11-01T04:12:24.838Z,77.00
2018-11-01T04:15:30.297Z,77.10
2018-11-01T04:18:35.630Z,77.00
2018-11-01T04:21:40.965Z,76.90
2018-11-01T04:24:46.314Z,77.00
2018-11-01T04:27:51.679Z,77.00
2018-11-01T04:30:57.205Z,77.50
2018-11-01T04:34:02.605Z,77.80
2018-11-01T04:37:08.270Z,77.50
2018-11-01T04:40:13.657Z,78.50
2018-11-01T04:43:19.211Z,78.20
2018-11-01T04:46:24.772Z,78.00
2018-11-01T04:49:30.290Z,77.60
2018-11-01T04:52:36.041Z,77.70
2018-11-01T04:55:53.241Z,77.90
2018-11-01T04:58:58.586Z,78.50
2018-11-01T05:02:04.006Z,78.30
2018-11-01T05:05:09.384Z,79.10
2018-11-01T05:08:14.986Z,78.40
2018-11-01T05:11:20.565Z,78.60
2018-11-01T05:14:26.038Z,78.70
2018-11-01T05:17:31.382Z,78.90
2018-11-01T05:20:37.214Z,79.50
2018-11-01T05:23:42.668Z,79.40
2018-11-01T05:26:47.986Z,79.40
2018-11-01T05:29:53.439Z,79.20
2018-11-01T05:32:58.794Z,79.10
2018-11-01T05:36:04.574Z,78.80
2018-11-01T05:39:12.198Z,79.40
2018-11-01T05:42:17.700Z,79.50
2018-11-01T05:45:23.066Z,79.10
2018-11-01T05:48:28.399Z,79.60
2018-11-01T05:51:33.777Z,78.80
2018-11-01T05:54:39.929Z,78.70
2018-11-01T05:57:45.238Z,78.80
2018-11-01T06:00:50.579Z,78.00
2018-11-01T06:03:55.957Z,78.60
2018-11-01T06:07:01.305Z,78.30
2018-11-01T06:10:07.464Z,78.30
2018-11-01T06:13:12.909Z,78.20
2018-11-01T06:16:18.341Z,78.20
2018-11-01T06:19:23.653Z,78.40
2018-11-01T06:22:29.082Z,79.10
2018-11-01T06:25:34.996Z,79.10
2018-11-01T06:28:40.327Z,78.90
2018-11-01T06:31:45.754Z,79.00
2018-11-01T06:34:53.469Z,79.20
2018-11-01T06:37:59.146Z,79.30
2018-11-01T06:41:04.514Z,79.30
2018-11-01T06:44:10.311Z,79.00
2018-11-01T06:47:15.694Z,79.30
2018-11-01T06:50:21.013Z,78.70
2018-11-01T06:53:27.033Z,78.10
2018-11-01T06:56:32.406Z,78.20
2018-11-01T06:59:38.695Z,78.10
2018-11-01T07:02:44.451Z,78.50
2018-11-01T07:05:50.416Z,78.70
2018-11-01T07:08:56.109Z,78.60
2018-11-01T07:12:01.726Z,78.80
2018-11-01T07:15:08.898Z,78.50
2018-11-01T07:18:14.334Z,78.40
2018-11-01T07:21:19.815Z,78.60
2018-11-01T07:24:25.201Z,78.50
2018-11-01T07:27:30.606Z,78.40
2018-11-01T07:30:35.922Z,78.50
2018-11-01T07:33:41.350Z,78.50
2018-11-01T07:36:46.861Z,78.30
2018-11-01T07:39:52.398Z,78.10
2018-11-01T07:42:58.083Z,77.90
2018-11-01T07:46:03.441Z,78.30
2018-11-01T07:49:09.033Z,78.50
2018-11-01T07:52:14.516Z,78.40
2018-11-01T07:55:19.841Z,78.30
2018-11-01T07:58:25.283Z,78.30
2018-11-01T08:01:32.637Z,78.40
2018-11-01T08:04:38.998Z,77.70
2018-11-01T08:07:45.054Z,78.00
2018-11-01T08:10:50.413Z,77.70
2018-11-01T08:13:55.976Z,77.50
2018-11-01T08:17:02.163Z,77.00
2018-11-01T08:20:10.547Z,76.60
2018-11-01T08:23:16.230Z,76.80
2018-11-01T08:26:21.601Z,76.40
2018-11-01T08:29:26.942Z,76.30
2018-11-01T08:32:32.730Z,76.70
2018-11-01T08:35:38.098Z,76.70
2018-11-01T08:38:43.566Z,76.40
2018-11-01T08:41:49.196Z,75.50
2018-11-01T08:44:54.581Z,74.50
2018-11-01T08:48:00.397Z,73.90
2018-11-01T08:51:06.223Z,72.70
2018-11-01T08:54:11.648Z,72.30
2018-11-01T08:57:17.069Z,71.60
2018-11-01T09:00:22.434Z,71.30
2018-11-01T09:03:27.886Z,71.50
2018-11-01T09:06:33.271Z,71.50
2018-11-01T09:09:38.646Z,70.80
2018-11-01T09:12:44.412Z,71.60
2018-11-01T09:15:50.125Z,72.00
2018-11-01T09:18:55.506Z,71.60
2018-11-01T09:22:01.262Z,71.10
2018-11-01T09:25:08.285Z,70.60
2018-11-01T09:28:13.634Z,70.70
2018-11-01T09:31:19.005Z,70.50
2018-11-01T09:34:24.382Z,70.40
2018-11-01T09:37:32.277Z,70.20
2018-11-01T09:40:37.667Z,70.30
2018-11-01T09:43:43.730Z,70.40
2018-11-01T09:46:49.528Z,71.10
2018-11-01T09:49:54.748Z,71.20
2018-11-01T09:53:00.102Z,71.90
2018-11-01T09:56:05.902Z,71.80
2018-11-01T09:59:11.682Z,71.80
2018-11-01T10:02:17.042Z,72.30
2018-11-01T10:05:22.404Z,71.60
2018-11-01T10:08:27.744Z,71.70
2018-11-01T10:11:33.179Z,71.70
2018-11-01T10:14:38.629Z,72.70
2018-11-01T10:17:44.511Z,72.60
2018-11-01T10:20:49.588Z,72.30
2018-11-01T10:23:55.017Z,72.50
2018-11-01T10:27:00.767Z,72.30
2018-11-01T10:30:09.465Z,72.00
2018-11-01T10:33:14.851Z,72.50
2018-11-01T10:36:20.246Z,72.00
2018-11-01T10:39:25.586Z,72.30
2018-11-01T10:42:31.029Z,73.20
2018-11-01T10:45:36.417Z,72.00
2018-11-01T10:48:42.174Z,71.60
2018-11-01T10:51:47.787Z,70.90
2018-11-01T10:54:53.158Z,71.10
2018-11-01T10:58:00.737Z,70.20
2018-11-01T11:01:12.235Z,69.20
2018-11-01T11:04:17.878Z,69.40
2018-11-01T11:07:23.274Z,69.50
2018-11-01T11:10:28.619Z,69.20
2018-11-01T11:13:34.027Z,68.70
2018-11-01T11:16:39.382Z,68.60
2018-11-01T11:19:45.774Z,68.70
2018-11-01T11:22:52.006Z,69.00
2018-11-01T11:25:57.409Z,68.40
2018-11-01T11:29:02.793Z,67.60
2018-11-01T11:32:08.518Z,67.20
2018-11-01T11:35:13.888Z,67.40
2018-11-01T11:38:19.267Z,67.00
2018-11-01T11:41:24.626Z,67.60
2018-11-01T11:44:30.134Z,67.60
2018-11-01T11:47:35.884Z,67.70
2018-11-01T11:50:41.319Z,67.90
2018-11-01T11:53:46.768Z,68.20
2018-11-01T11:56:52.125Z,68.40
2018-11-01T11:59:57.742Z,68.80
2018-11-01T12:03:03.152Z,69.30
2018-11-01T12:06:08.647Z,68.90
2018-11-01T12:09:14.300Z,69.20
2018-11-01T12:12:19.713Z,69.20
2018-11-01T12:15:25.171Z,69.00
2018-11-01T12:18:30.558Z,69.70
2018-11-01T12:21:36.031Z,69.00
2018-11-01T12:24:41.417Z,69.00
2018-11-01T12:27:46.821Z,68.70
2018-11-01T12:30:52.360Z,69.20
2018-11-01T12:33:57.958Z,69.00
2018-11-01T12:37:03.534Z,68.60
2018-11-01T12:40:12.008Z,68.70
2018-11-01T12:43:17.393Z,68.80
2018-11-01T12:46:23.351Z,69.00
2018-11-01T12:49:28.720Z,69.30
2018-11-01T12:52:34.324Z,69.00
2018-11-01T12:55:39.706Z,69.50
2018-11-01T12:58:45.054Z,69.40
2018-11-01T13:01:50.949Z,70.10
2018-11-01T13:04:57.043Z,69.80
2018-11-01T13:08:02.449Z,70.00
2018-11-01T13:11:07.842Z,70.00
2018-11-01T13:14:13.214Z,70.60
2018-11-01T13:17:18.590Z,71.00
2018-11-01T13:20:24.059Z,71.00
2018-11-01T13:23:29.459Z,70.70
2018-11-01T13:26:34.841Z,71.20
2018-11-01T13:29:40.243Z,71.10
2018-11-01T13:32:46.510Z,71.80
2018-11-01T13:35:52.040Z,71.60
2018-11-01T13:38:59.539Z,71.20
2018-11-01T13:42:07.542Z,71.80
2018-11-01T13:45:12.886Z,71.50
2018-11-01T13:48:18.456Z,72.00
2018-11-01T13:51:23.835Z,72.30
2018-11-01T13:54:30.431Z,72.70
2018-11-01T13:57:35.959Z,72.40
2018-11-01T14:00:41.330Z,72.50
2018-11-01T14:03:46.827Z,72.80
2018-11-01T14:06:52.178Z,73.00
2018-11-01T14:09:57.549Z,73.00
2018-11-01T14:13:02.931Z,73.80
2018-11-01T14:16:08.358Z,74.10
2018-11-01T14:19:17.402Z,73.80
2018-11-01T14:22:25.035Z,74.10
2018-11-01T14:25:31.457Z,73.50
2018-11-01T14:28:37.006Z,74.70
2018-11-01T14:31:43.517Z,74.30
2018-11-01T14:34:49.081Z,74.70
2018-11-01T14:37:54.524Z,74.40
2018-11-01T14:41:00.043Z,74.50
2018-11-01T14:44:06.039Z,74.50
2018-11-01T14:47:11.590Z,75.30
2018-11-01T14:50:17.135Z,75.80
2018-11-01T14:53:24.447Z,76.00
2018-11-01T14:56:30.986Z,76.10
2018-11-01T14:59:36.695Z,75.60
2018-11-01T15:02:41.100Z,75.70
2018-11-01T15:05:46.588Z,75.90
2018-11-01T15:08:51.997Z,75.80
2018-11-01T15:11:57.422Z,75.90
2018-11-01T15:15:03.126Z,76.00
2018-11-01T15:18:08.718Z,75.90
2018-11-01T15:21:14.165Z,75.90
2018-11-01T15:24:19.938Z,76.00
2018-11-01T15:27:26.889Z,75.90
2018-11-01T15:30:34.429Z,76.30
2018-11-01T15:33:40.141Z,76.10
2018-11-01T15:36:45.606Z,75.90
2018-11-01T15:39:51.510Z,76.10
2018-11-01T15:42:57.165Z,76.40
2018-11-01T15:46:02.550Z,76.50
2018-11-01T15:49:09.144Z,77.20
2018-11-01T15:52:14.671Z,77.60
2018-11-01T15:55:20.384Z,78.30
2018-11-01T15:58:26.049Z,78.70
2018-11-01T16:01:31.470Z,78.60
2018-11-01T16:04:36.894Z,78.40
2018-11-01T16:07:42.325Z,79.20
2018-11-01T16:10:47.719Z,79.10
2018-11-01T16:13:53.134Z,79.50
2018-11-01T16:16:58.535Z,79.60
2018-11-01T16:20:04.232Z,79.80
2018-11-01T16:23:10.009Z,79.70
2018-11-01T16:26:15.866Z,79.60
2018-11-01T16:29:21.263Z,79.80
2018-11-01T16:32:26.772Z,80.00
2018-11-01T16:35:32.295Z,80.10
2018-11-01T16:38:38.690Z,80.80
2018-11-01T16:41:44.310Z,80.50
2018-11-01T16:44:49.842Z,80.70
2018-11-01T16:47:55.369Z,81.00
2018-11-01T16:51:00.862Z,80.90
2018-11-01T16:54:06.547Z,81.40
2018-11-01T16:57:11.995Z,81.20
2018-11-01T17:00:17.702Z,81.60
2018-11-01T17:03:25.839Z,81.70
2018-11-01T17:06:33.402Z,81.40
2018-11-01T17:09:38.787Z,81.40
2018-11-01T17:12:44.238Z,81.40
2018-11-01T17:15:49.822Z,81.80
2018-11-01T17:18:55.218Z,81.80
2018-11-01T17:22:00.610Z,82.20
2018-11-01T17:25:06.792Z,82.60
2018-11-01T17:28:12.279Z,82.70
2018-11-01T17:31:17.675Z,82.60
2018-11-01T17:34:23.351Z,82.60
2018-11-01T17:37:28.790Z,82.60
2018-11-01T17:40:34.195Z,82.60
2018-11-01T17:51:05.916Z,84.60
2018-11-01T17:54:16.762Z,84.60
2018-11-01T17:57:22.721Z,84.10
2018-11-01T18:00:30.843Z,84.10
2018-11-01T18:03:36.266Z,84.10
2018-11-01T18:06:43.646Z,84.00
2018-11-01T18:09:49.023Z,84.10
2018-11-01T18:12:54.498Z,84.30
2018-11-01T18:15:59.905Z,84.40
2018-11-01T18:19:05.314Z,84.90
2018-11-01T18:22:10.941Z,85.40
2018-11-01T18:25:17.289Z,85.60
2018-11-01T18:28:22.793Z,85.40
2018-11-01T18:31:28.778Z,85.10
2018-11-01T18:34:34.339Z,84.80
2018-11-01T18:37:40.600Z,85.20
2018-11-01T18:40:46.227Z,85.60
2018-11-01T18:43:51.642Z,85.60
2018-11-01T18:46:57.018Z,86.00
2018-11-01T18:50:02.417Z,86.20
2018-11-01T18:53:08.027Z,86.40
2018-11-01T18:56:13.400Z,86.70
2018-11-01T18:59:19.020Z,86.80
2018-11-01T19:02:24.490Z,87.00
2018-11-01T19:05:30.003Z,87.30
2018-11-01T19:08:35.473Z,87.00
2018-11-01T19:11:41.008Z,86.70
2018-11-01T19:14:46.451Z,86.40
2018-11-01T19:17:51.853Z,86.70
2018-11-01T19:20:57.285Z,86.40
2018-11-01T19:24:02.688Z,86.60
2018-11-01T19:27:08.216Z,86.90
2018-11-01T19:30:14.328Z,87.00
2018-11-01T19:33:20.455Z,87.30
2018-11-01T19:36:25.827Z,87.60
2018-11-01T19:39:31.254Z,87.50
2018-11-01T19:42:36.898Z,87.70
2018-11-01T19:45:42.312Z,87.70
2018-11-01T19:48:47.722Z,87.70
2018-11-01T19:51:53.303Z,87.70
2018-11-01T19:54:58.706Z,87.90
2018-11-01T19:58:04.122Z,88.10
2018-11-01T20:01:09.513Z,87.90
2018-11-01T20:04:15.033Z,87.90
2018-11-01T20:07:20.558Z,88.00
2018-11-01T20:10:26.114Z,87.80
2018-11-01T20:13:31.638Z,87.60
2018-11-01T20:16:37.018Z,87.50
2018-11-01T20:19:44.004Z,87.60
2018-11-01T20:22:50.134Z,87.50
2018-11-01T20:25:55.533Z,87.50
2018-11-01T20:29:00.923Z,87.40
2018-11-01T20:32:06.571Z,87.40
2018-11-01T20:35:13.902Z,87.20
2018-11-01T20:38:19.991Z,87.30
2018-11-01T20:41:25.537Z,87.20
2018-11-01T20:44:30.947Z,87.30
2018-11-01T20:47:36.700Z,87.20
2018-11-01T20:50:42.331Z,87.40
2018-11-01T20:53:47.693Z,87.90
2018-11-01T20:56:53.088Z,87.90
2018-11-01T20:59:58.723Z,88.10
2018-11-01T21:03:04.110Z,88.10
2018-11-01T21:06:09.515Z,88.40
2018-11-01T21:09:14.943Z,88.50
2018-11-01T21:12:20.345Z,88.70
2018-11-01T21:15:25.774Z,89.00
2018-11-01T21:18:31.293Z,89.20
2018-11-01T21:21:37.273Z,89.50
2018-11-01T21:24:43.014Z,89.80
2018-11-01T21:27:48.858Z,90.00
2018-11-01T21:30:56.365Z,90.10
2018-11-01T21:34:01.802Z,90.30
2018-11-01T21:37:07.594Z,90.70
2018-11-01T21:40:13.184Z,90.50
2018-11-01T21:43:18.594Z,90.50
2018-11-01T21:46:23.965Z,90.50
2018-11-01T21:49:29.329Z,90.50
2018-11-01T21:52:34.716Z,90.60
2018-11-01T21:55:40.364Z,90.70
2018-11-01T21:58:45.729Z,90.80
2018-11-01T22:01:51.118Z,90.80
2018-11-01T22:04:56.474Z,91.00
2018-11-01T22:08:01.848Z,91.00
2018-11-01T22:11:07.542Z,91.10
2018-11-01T22:14:13.165Z,91.10
2018-11-01T22:17:18.566Z,91.10
2018-11-01T22:20:23.921Z,91.20
2018-11-01T22:23:29.447Z,91.30
2018-11-01T22:26:35.722Z,91.30
2018-11-01T22:29:41.079Z,91.30
2018-11-01T22:32:46.487Z,91.30
2018-11-01T22:35:51.847Z,91.40
2018-11-01T22:38:57.260Z,91.50
2018-11-01T22:42:03.352Z,91.50
2018-11-01T22:45:10.310Z,91.50
2018-11-01T22:48:15.730Z,91.60
2018-11-01T22:51:21.246Z,91.60
2018-11-01T22:54:26.638Z,91.70
2018-11-01T22:57:32.058Z,91.70
2018-11-01T23:00:41.501Z,91.80
2018-11-01T23:03:46.909Z,92.00
2018-11-01T23:06:52.348Z,92.10
2018-11-01T23:09:57.794Z,92.10
2018-11-01T23:13:03.568Z,92.20
2018-11-01T23:16:09.947Z,92.40
2018-11-01T23:19:15.346Z,92.30
2018-11-01T23:22:21.198Z,92.60
2018-11-01T23:25:26.883Z,92.30
2018-11-01T23:28:32.322Z,92.20
2018-11-01T23:31:37.786Z,92.30
2018-11-01T23:34:43.343Z,92.30
2018-11-01T23:37:53.989Z,92.50
2018-11-01T23:41:04.556Z,92.70
2018-11-01T23:44:15.267Z,92.90
2018-11-01T23:47:25.907Z,93.00
2018-11-01T23:50:41.142Z,93.20
2018-11-01T23:53:50.666Z,93.30
2018-11-01T23:56:56.022Z,93.30
